Belle Mina, Alabama
Current Conditions -  °F | °C
As of 11:53 AM on Wednesday 28 Jan 2015 (Local Time) from KDCU Reporting Station
Clear Clear  
Wind Chill: 43°   Ceiling: Unl
Heat Index: 45°   Visibility: 10mi
Dew Point: 28°   Wind: 5mph
Humidity: 52%   Direction: NA
Pressure: 30.31"   Gusts: NA
Location:  34.66°N, 86.88°W
Report Text: KDCU 281753Z AUTO VRB04KT 10SM CLR 07/M02 A3031 RMK AO2 SLP265 T00721022 10078 20000 58012
Loading
Personal Weather Stations






























Interactive Weather Map New forecast layout! Learn more

10-Day Weather Forecast

Advertisements
Track Severe Weather on mobile